Terminal Aerodrome Forecast
Issued by NWS

Home | Current Version | Previous Version | Text Only | Print | Product List | Glossary On
Versions: 1 2 3 4 5 6 7 8 9 10 11 12 13 14 15 16 17 18
000
FTUS43 KGRB 220213 AAA
TAFRHI
TAF AMD
KRHI 220213Z 2202/2224 25004KT P6SM SCT035 OVC080
     FM220700 31006KT P6SM BKN017
     FM221400 31011G16KT P6SM SCT030
     FM221800 30012G20KT P6SM BKN050=

USA.gov is the U.S. government's official web portal to all federal, state and local government web resources and services.